sensor_id;sensor_type;location;lat;lon;timestamp;temperature;humidity
34768;DHT22;21755;43.608;1.236;2022-07-10T00:00:36;23.00;99.90
34768;DHT22;21755;43.608;1.236;2022-07-10T00:03:03;23.00;99.90
34768;DHT22;21755;43.608;1.236;2022-07-10T00:05:29;23.00;99.90
34768;DHT22;21755;43.608;1.236;2022-07-10T00:07:55;23.00;99.90
34768;DHT22;21755;43.608;1.236;2022-07-10T00:10:22;23.00;99.90
34768;DHT22;21755;43.608;1.236;2022-07-10T00:12:48;22.90;99.90
34768;DHT22;21755;43.608;1.236;2022-07-10T00:15:16;22.80;99.90
34768;DHT22;21755;43.608;1.236;2022-07-10T00:17:42;22.70;99.90
34768;DHT22;21755;43.608;1.236;2022-07-10T00:20:10;22.70;99.90
34768;DHT22;21755;43.608;1.236;2022-07-10T00:22:37;22.60;99.90
34768;DHT22;21755;43.608;1.236;2022-07-10T00:25:07;22.50;99.90
34768;DHT22;21755;43.608;1.236;2022-07-10T00:27:33;22.50;99.90
34768;DHT22;21755;43.608;1.236;2022-07-10T00:29:59;22.40;99.90
34768;DHT22;21755;43.608;1.236;2022-07-10T00:32:25;22.40;99.90
34768;DHT22;21755;43.608;1.236;2022-07-10T00:34:51;22.40;99.90
34768;DHT22;21755;43.608;1.236;2022-07-10T00:37:18;22.40;99.90
34768;DHT22;21755;43.608;1.236;2022-07-10T00:39:44;22.40;99.90
34768;DHT22;21755;43.608;1.236;2022-07-10T00:42:11;22.50;99.90
34768;DHT22;21755;43.608;1.236;2022-07-10T00:44:39;22.40;99.90
34768;DHT22;21755;43.608;1.236;2022-07-10T00:47:07;22.30;99.90
34768;DHT22;21755;43.608;1.236;2022-07-10T00:49:34;22.20;99.90
34768;DHT22;21755;43.608;1.236;2022-07-10T00:52:04;22.10;99.90
34768;DHT22;21755;43.608;1.236;2022-07-10T00:54:31;22.10;99.90
34768;DHT22;21755;43.608;1.236;2022-07-10T00:56:58;22.20;99.90
34768;DHT22;21755;43.608;1.236;2022-07-10T00:59:26;22.30;99.90
34768;DHT22;21755;43.608;1.236;2022-07-10T01:01:52;22.30;99.90
34768;DHT22;21755;43.608;1.236;2022-07-10T01:04:18;22.30;99.90
34768;DHT22;21755;43.608;1.236;2022-07-10T01:06:44;22.20;99.90
34768;DHT22;21755;43.608;1.236;2022-07-10T01:09:11;22.10;99.90
34768;DHT22;21755;43.608;1.236;2022-07-10T01:11:37;22.20;99.90
34768;DHT22;21755;43.608;1.236;2022-07-10T01:14:04;22.10;99.90
34768;DHT22;21755;43.608;1.236;2022-07-10T01:16:31;22.00;99.90
34768;DHT22;21755;43.608;1.236;2022-07-10T01:18:58;22.00;99.90
34768;DHT22;21755;43.608;1.236;2022-07-10T01:21:30;22.10;99.90
34768;DHT22;21755;43.608;1.236;2022-07-10T01:23:57;21.90;99.90
34768;DHT22;21755;43.608;1.236;2022-07-10T01:26:24;21.80;99.90
34768;DHT22;21755;43.608;1.236;2022-07-10T01:28:54;21.80;99.90
34768;DHT22;21755;43.608;1.236;2022-07-10T01:31:24;21.80;99.90
34768;DHT22;21755;43.608;1.236;2022-07-10T01:33:52;21.60;99.90
34768;DHT22;21755;43.608;1.236;2022-07-10T01:36:18;21.60;99.90
34768;DHT22;21755;43.608;1.236;2022-07-10T01:38:44;21.60;99.90
34768;DHT22;21755;43.608;1.236;2022-07-10T01:41:10;21.70;99.90
34768;DHT22;21755;43.608;1.236;2022-07-10T01:43:37;21.70;99.90
34768;DHT22;21755;43.608;1.236;2022-07-10T01:46:03;21.70;99.90
34768;DHT22;21755;43.608;1.236;2022-07-10T01:48:30;21.70;99.90
34768;DHT22;21755;43.608;1.236;2022-07-10T01:50:57;21.70;99.90
34768;DHT22;21755;43.608;1.236;2022-07-10T01:53:23;21.60;99.90
34768;DHT22;21755;43.608;1.236;2022-07-10T01:55:49;21.50;99.90
34768;DHT22;21755;43.608;1.236;2022-07-10T01:58:14;21.40;99.90
34768;DHT22;21755;43.608;1.236;2022-07-10T02:00:40;21.30;99.90
34768;DHT22;21755;43.608;1.236;2022-07-10T02:03:06;21.30;99.90
34768;DHT22;21755;43.608;1.236;2022-07-10T02:05:51;21.30;99.90
34768;DHT22;21755;43.608;1.236;2022-07-10T02:08:16;21.40;99.90
34768;DHT22;21755;43.608;1.236;2022-07-10T02:10:42;21.50;99.90
34768;DHT22;21755;43.608;1.236;2022-07-10T02:13:10;21.40;99.90
34768;DHT22;21755;43.608;1.236;2022-07-10T02:15:37;21.20;99.90
34768;DHT22;21755;43.608;1.236;2022-07-10T02:18:03;21.10;99.90
34768;DHT22;21755;43.608;1.236;2022-07-10T02:20:29;21.10;99.90
34768;DHT22;21755;43.608;1.236;2022-07-10T02:22:54;21.20;99.90
34768;DHT22;21755;43.608;1.236;2022-07-10T02:25:20;21.10;99.90
34768;DHT22;21755;43.608;1.236;2022-07-10T02:27:46;21.20;99.90
34768;DHT22;21755;43.608;1.236;2022-07-10T02:30:12;21.20;99.90
34768;DHT22;21755;43.608;1.236;2022-07-10T02:32:38;21.00;99.90
34768;DHT22;21755;43.608;1.236;2022-07-10T02:35:04;20.90;99.90
34768;DHT22;21755;43.608;1.236;2022-07-10T02:37:30;20.90;99.90
34768;DHT22;21755;43.608;1.236;2022-07-10T02:39:56;20.90;99.90
34768;DHT22;21755;43.608;1.236;2022-07-10T02:42:22;20.70;99.90
34768;DHT22;21755;43.608;1.236;2022-07-10T02:44:48;20.70;99.90
34768;DHT22;21755;43.608;1.236;2022-07-10T02:47:14;20.70;99.90
34768;DHT22;21755;43.608;1.236;2022-07-10T02:49:40;20.70;99.90
34768;DHT22;21755;43.608;1.236;2022-07-10T02:52:06;20.70;99.90
34768;DHT22;21755;43.608;1.236;2022-07-10T02:54:32;20.90;99.90
34768;DHT22;21755;43.608;1.236;2022-07-10T02:56:58;20.80;99.90
34768;DHT22;21755;43.608;1.236;2022-07-10T02:59:24;20.60;99.90
34768;DHT22;21755;43.608;1.236;2022-07-10T03:01:49;20.70;99.90
34768;DHT22;21755;43.608;1.236;2022-07-10T03:04:15;20.70;99.90
34768;DHT22;21755;43.608;1.236;2022-07-10T03:06:41;20.70;99.90
34768;DHT22;21755;43.608;1.236;2022-07-10T03:09:07;20.60;99.90
34768;DHT22;21755;43.608;1.236;2022-07-10T03:11:33;20.50;99.90
34768;DHT22;21755;43.608;1.236;2022-07-10T03:13:59;20.60;99.90
34768;DHT22;21755;43.608;1.236;2022-07-10T03:16:25;20.60;99.90
34768;DHT22;21755;43.608;1.236;2022-07-10T03:18:51;20.60;99.90
34768;DHT22;21755;43.608;1.236;2022-07-10T03:21:17;20.30;99.90
34768;DHT22;21755;43.608;1.236;2022-07-10T03:23:43;20.20;99.90
34768;DHT22;21755;43.608;1.236;2022-07-10T03:26:09;20.30;99.90
34768;DHT22;21755;43.608;1.236;2022-07-10T03:28:34;20.30;99.90
34768;DHT22;21755;43.608;1.236;2022-07-10T03:31:01;20.40;99.90
34768;DHT22;21755;43.608;1.236;2022-07-10T03:33:27;20.50;99.90
34768;DHT22;21755;43.608;1.236;2022-07-10T03:35:54;20.40;99.90
34768;DHT22;21755;43.608;1.236;2022-07-10T03:38:20;20.40;99.90
34768;DHT22;21755;43.608;1.236;2022-07-10T03:40:46;20.20;99.90
34768;DHT22;21755;43.608;1.236;2022-07-10T03:43:15;20.00;99.90
34768;DHT22;21755;43.608;1.236;2022-07-10T03:45:41;20.20;99.90
34768;DHT22;21755;43.608;1.236;2022-07-10T03:48:07;20.30;99.90
34768;DHT22;21755;43.608;1.236;2022-07-10T03:50:33;20.30;99.90
34768;DHT22;21755;43.608;1.236;2022-07-10T03:52:59;20.30;99.90
34768;DHT22;21755;43.608;1.236;2022-07-10T03:55:25;20.20;99.90
34768;DHT22;21755;43.608;1.236;2022-07-10T03:57:51;20.20;99.90
34768;DHT22;21755;43.608;1.236;2022-07-10T04:00:24;20.20;99.90
34768;DHT22;21755;43.608;1.236;2022-07-10T04:03:01;20.10;99.90
34768;DHT22;21755;43.608;1.236;2022-07-10T04:05:28;20.00;99.90
34768;DHT22;21755;43.608;1.236;2022-07-10T04:07:55;20.00;99.90
34768;DHT22;21755;43.608;1.236;2022-07-10T04:10:23;20.10;99.90
34768;DHT22;21755;43.608;1.236;2022-07-10T04:12:49;20.00;99.90
34768;DHT22;21755;43.608;1.236;2022-07-10T04:15:16;19.90;99.90
34768;DHT22;21755;43.608;1.236;2022-07-10T04:17:42;20.00;99.90
34768;DHT22;21755;43.608;1.236;2022-07-10T04:20:08;19.70;99.90
34768;DHT22;21755;43.608;1.236;2022-07-10T04:22:34;19.70;99.90
34768;DHT22;21755;43.608;1.236;2022-07-10T04:25:01;19.70;99.90
34768;DHT22;21755;43.608;1.236;2022-07-10T04:27:26;19.70;99.90
34768;DHT22;21755;43.608;1.236;2022-07-10T04:29:52;19.70;99.90
34768;DHT22;21755;43.608;1.236;2022-07-10T04:32:18;19.70;99.90
34768;DHT22;21755;43.608;1.236;2022-07-10T04:34:44;19.90;99.90
34768;DHT22;21755;43.608;1.236;2022-07-10T04:37:10;19.90;99.90
34768;DHT22;21755;43.608;1.236;2022-07-10T04:39:37;20.00;99.90
34768;DHT22;21755;43.608;1.236;2022-07-10T04:42:04;19.90;99.90
34768;DHT22;21755;43.608;1.236;2022-07-10T04:44:30;20.10;99.90
34768;DHT22;21755;43.608;1.236;2022-07-10T04:46:56;20.40;99.90
34768;DHT22;21755;43.608;1.236;2022-07-10T04:49:22;20.30;99.90
34768;DHT22;21755;43.608;1.236;2022-07-10T04:51:48;20.30;99.90
34768;DHT22;21755;43.608;1.236;2022-07-10T04:54:14;20.20;99.90
34768;DHT22;21755;43.608;1.236;2022-07-10T04:56:40;20.30;99.90
34768;DHT22;21755;43.608;1.236;2022-07-10T04:59:06;20.20;99.90
34768;DHT22;21755;43.608;1.236;2022-07-10T05:01:33;20.00;99.90
34768;DHT22;21755;43.608;1.236;2022-07-10T05:03:59;20.00;99.90
34768;DHT22;21755;43.608;1.236;2022-07-10T05:06:25;19.90;99.90
34768;DHT22;21755;43.608;1.236;2022-07-10T05:08:51;20.00;99.90
34768;DHT22;21755;43.608;1.236;2022-07-10T05:11:16;20.20;99.90
34768;DHT22;21755;43.608;1.236;2022-07-10T05:13:42;20.30;99.90
34768;DHT22;21755;43.608;1.236;2022-07-10T05:16:12;20.40;99.90
34768;DHT22;21755;43.608;1.236;2022-07-10T05:18:39;20.40;99.90
34768;DHT22;21755;43.608;1.236;2022-07-10T05:21:06;20.30;99.90
34768;DHT22;21755;43.608;1.236;2022-07-10T05:23:32;20.20;99.90
34768;DHT22;21755;43.608;1.236;2022-07-10T05:25:58;20.20;99.90
34768;DHT22;21755;43.608;1.236;2022-07-10T05:28:24;20.30;99.90
34768;DHT22;21755;43.608;1.236;2022-07-10T05:30:50;19.80;99.90
34768;DHT22;21755;43.608;1.236;2022-07-10T05:33:16;19.50;99.90
34768;DHT22;21755;43.608;1.236;2022-07-10T05:35:42;19.70;99.90
34768;DHT22;21755;43.608;1.236;2022-07-10T05:38:08;19.80;99.90
34768;DHT22;21755;43.608;1.236;2022-07-10T05:40:34;20.10;99.90
34768;DHT22;21755;43.608;1.236;2022-07-10T05:43:00;20.30;99.90
34768;DHT22;21755;43.608;1.236;2022-07-10T05:45:26;20.20;99.90
34768;DHT22;21755;43.608;1.236;2022-07-10T05:47:52;20.40;99.90
34768;DHT22;21755;43.608;1.236;2022-07-10T05:50:18;20.60;99.90
34768;DHT22;21755;43.608;1.236;2022-07-10T05:52:44;20.30;99.90
34768;DHT22;21755;43.608;1.236;2022-07-10T05:55:10;20.30;99.90
34768;DHT22;21755;43.608;1.236;2022-07-10T05:57:37;20.30;99.90
34768;DHT22;21755;43.608;1.236;2022-07-10T06:00:06;20.40;99.90
34768;DHT22;21755;43.608;1.236;2022-07-10T06:02:33;20.60;99.90
34768;DHT22;21755;43.608;1.236;2022-07-10T06:04:59;20.50;99.90
34768;DHT22;21755;43.608;1.236;2022-07-10T06:07:26;20.50;99.90
34768;DHT22;21755;43.608;1.236;2022-07-10T06:09:53;20.50;99.90
34768;DHT22;21755;43.608;1.236;2022-07-10T06:12:19;20.50;99.90
34768;DHT22;21755;43.608;1.236;2022-07-10T06:14:45;20.60;99.90
34768;DHT22;21755;43.608;1.236;2022-07-10T06:17:11;20.60;99.90
34768;DHT22;21755;43.608;1.236;2022-07-10T06:19:37;20.80;99.90
34768;DHT22;21755;43.608;1.236;2022-07-10T06:22:03;20.80;99.90
34768;DHT22;21755;43.608;1.236;2022-07-10T06:24:47;21.00;99.90
34768;DHT22;21755;43.608;1.236;2022-07-10T06:27:13;21.30;99.90
34768;DHT22;21755;43.608;1.236;2022-07-10T06:29:39;21.80;99.90
34768;DHT22;21755;43.608;1.236;2022-07-10T06:32:05;22.20;99.90
34768;DHT22;21755;43.608;1.236;2022-07-10T06:34:31;22.30;99.90
34768;DHT22;21755;43.608;1.236;2022-07-10T06:36:57;22.30;99.90
34768;DHT22;21755;43.608;1.236;2022-07-10T06:39:23;22.50;99.90
34768;DHT22;21755;43.608;1.236;2022-07-10T06:41:49;22.70;99.90
34768;DHT22;21755;43.608;1.236;2022-07-10T06:44:15;22.90;99.90
34768;DHT22;21755;43.608;1.236;2022-07-10T06:46:41;22.90;99.90
34768;DHT22;21755;43.608;1.236;2022-07-10T06:49:09;23.20;99.90
34768;DHT22;21755;43.608;1.236;2022-07-10T06:51:37;23.40;99.90
34768;DHT22;21755;43.608;1.236;2022-07-10T06:54:03;23.40;99.90
34768;DHT22;21755;43.608;1.236;2022-07-10T06:56:29;23.60;99.90
34768;DHT22;21755;43.608;1.236;2022-07-10T06:58:55;23.60;99.90
34768;DHT22;21755;43.608;1.236;2022-07-10T07:01:21;23.70;99.90
34768;DHT22;21755;43.608;1.236;2022-07-10T07:03:47;23.80;99.90
34768;DHT22;21755;43.608;1.236;2022-07-10T07:06:13;23.90;99.90
34768;DHT22;21755;43.608;1.236;2022-07-10T07:08:38;23.90;99.90
34768;DHT22;21755;43.608;1.236;2022-07-10T07:11:04;23.90;99.90
34768;DHT22;21755;43.608;1.236;2022-07-10T07:13:30;24.00;99.90
34768;DHT22;21755;43.608;1.236;2022-07-10T07:15:56;24.00;99.90
34768;DHT22;21755;43.608;1.236;2022-07-10T07:18:26;24.20;99.90
34768;DHT22;21755;43.608;1.236;2022-07-10T07:21:00;24.20;99.90
34768;DHT22;21755;43.608;1.236;2022-07-10T07:23:45;24.00;99.90
34768;DHT22;21755;43.608;1.236;2022-07-10T07:26:11;24.20;99.90
34768;DHT22;21755;43.608;1.236;2022-07-10T07:28:37;24.40;99.90
34768;DHT22;21755;43.608;1.236;2022-07-10T07:31:03;24.50;99.90
34768;DHT22;21755;43.608;1.236;2022-07-10T07:33:29;24.70;99.90
34768;DHT22;21755;43.608;1.236;2022-07-10T07:35:56;24.90;99.90
34768;DHT22;21755;43.608;1.236;2022-07-10T07:38:22;25.00;99.90
34768;DHT22;21755;43.608;1.236;2022-07-10T07:40:48;24.90;99.90
34768;DHT22;21755;43.608;1.236;2022-07-10T07:43:14;25.10;99.90
34768;DHT22;21755;43.608;1.236;2022-07-10T07:45:40;25.30;99.90
34768;DHT22;21755;43.608;1.236;2022-07-10T07:48:06;25.50;99.90
34768;DHT22;21755;43.608;1.236;2022-07-10T07:50:35;25.50;99.90
34768;DHT22;21755;43.608;1.236;2022-07-10T07:53:04;25.60;99.90
34768;DHT22;21755;43.608;1.236;2022-07-10T07:58:31;25.60;99.90
34768;DHT22;21755;43.608;1.236;2022-07-10T08:00:58;25.50;99.90
34768;DHT22;21755;43.608;1.236;2022-07-10T08:03:24;25.60;99.90
34768;DHT22;21755;43.608;1.236;2022-07-10T08:05:50;25.60;99.90
34768;DHT22;21755;43.608;1.236;2022-07-10T08:08:16;25.50;99.90
34768;DHT22;21755;43.608;1.236;2022-07-10T08:10:42;25.70;99.90
34768;DHT22;21755;43.608;1.236;2022-07-10T08:13:08;25.80;99.80
34768;DHT22;21755;43.608;1.236;2022-07-10T08:15:33;25.80;99.00
34768;DHT22;21755;43.608;1.236;2022-07-10T08:18:02;26.20;99.50
34768;DHT22;21755;43.608;1.236;2022-07-10T08:20:32;26.40;99.40
34768;DHT22;21755;43.608;1.236;2022-07-10T08:22:59;26.50;98.60
34768;DHT22;21755;43.608;1.236;2022-07-10T08:25:25;26.50;98.10
34768;DHT22;21755;43.608;1.236;2022-07-10T08:27:51;26.50;98.30
34768;DHT22;21755;43.608;1.236;2022-07-10T08:30:17;26.90;98.20
34768;DHT22;21755;43.608;1.236;2022-07-10T08:32:43;27.00;97.90
34768;DHT22;21755;43.608;1.236;2022-07-10T08:35:10;27.30;98.20
34768;DHT22;21755;43.608;1.236;2022-07-10T08:37:40;27.40;97.50
34768;DHT22;21755;43.608;1.236;2022-07-10T08:40:08;27.10;96.90
34768;DHT22;21755;43.608;1.236;2022-07-10T08:42:35;27.20;96.80
34768;DHT22;21755;43.608;1.236;2022-07-10T08:45:01;27.40;96.80
34768;DHT22;21755;43.608;1.236;2022-07-10T08:47:27;27.40;96.40
34768;DHT22;21755;43.608;1.236;2022-07-10T08:49:57;27.60;96.90
34768;DHT22;21755;43.608;1.236;2022-07-10T08:52:36;27.90;96.50
34768;DHT22;21755;43.608;1.236;2022-07-10T08:55:04;27.70;96.40
34768;DHT22;21755;43.608;1.236;2022-07-10T08:57:31;28.00;96.40
34768;DHT22;21755;43.608;1.236;2022-07-10T08:59:59;27.90;96.70
34768;DHT22;21755;43.608;1.236;2022-07-10T09:02:25;27.90;95.90
34768;DHT22;21755;43.608;1.236;2022-07-10T09:04:51;28.10;95.60
34768;DHT22;21755;43.608;1.236;2022-07-10T09:07:17;28.10;96.10
34768;DHT22;21755;43.608;1.236;2022-07-10T09:09:56;28.00;95.00
34768;DHT22;21755;43.608;1.236;2022-07-10T09:12:22;28.10;94.90
34768;DHT22;21755;43.608;1.236;2022-07-10T09:14:50;28.10;95.40
34768;DHT22;21755;43.608;1.236;2022-07-10T09:17:17;28.00;94.80
34768;DHT22;21755;43.608;1.236;2022-07-10T09:19:43;28.00;95.40
34768;DHT22;21755;43.608;1.236;2022-07-10T09:22:11;28.30;95.50
34768;DHT22;21755;43.608;1.236;2022-07-10T09:24:43;28.40;95.40
34768;DHT22;21755;43.608;1.236;2022-07-10T09:27:12;28.70;95.20
34768;DHT22;21755;43.608;1.236;2022-07-10T09:32:12;28.60;94.40
34768;DHT22;21755;43.608;1.236;2022-07-10T09:34:43;28.40;94.30
34768;DHT22;21755;43.608;1.236;2022-07-10T09:37:19;28.70;94.60
34768;DHT22;21755;43.608;1.236;2022-07-10T09:40:05;28.60;93.60
34768;DHT22;21755;43.608;1.236;2022-07-10T09:42:41;28.80;94.00
34768;DHT22;21755;43.608;1.236;2022-07-10T09:45:13;28.90;93.00
34768;DHT22;21755;43.608;1.236;2022-07-10T09:47:54;28.90;93.30
34768;DHT22;21755;43.608;1.236;2022-07-10T09:50:34;29.10;93.00
34768;DHT22;21755;43.608;1.236;2022-07-10T09:53:06;28.90;92.70
34768;DHT22;21755;43.608;1.236;2022-07-10T09:55:35;29.40;93.60
34768;DHT22;21755;43.608;1.236;2022-07-10T09:58:03;29.80;92.90
34768;DHT22;21755;43.608;1.236;2022-07-10T10:00:35;29.90;93.60
34768;DHT22;21755;43.608;1.236;2022-07-10T10:03:07;29.70;93.10
34768;DHT22;21755;43.608;1.236;2022-07-10T10:05:43;29.70;92.00
34768;DHT22;21755;43.608;1.236;2022-07-10T10:08:27;29.80;92.50
34768;DHT22;21755;43.608;1.236;2022-07-10T10:10:53;30.00;92.80
34768;DHT22;21755;43.608;1.236;2022-07-10T10:13:25;29.90;92.50
34768;DHT22;21755;43.608;1.236;2022-07-10T10:15:56;30.20;94.00
34768;DHT22;21755;43.608;1.236;2022-07-10T10:18:24;30.10;93.10
34768;DHT22;21755;43.608;1.236;2022-07-10T10:20:54;30.20;92.40
34768;DHT22;21755;43.608;1.236;2022-07-10T10:23:23;30.00;92.20
34768;DHT22;21755;43.608;1.236;2022-07-10T10:25:51;30.30;93.30
34768;DHT22;21755;43.608;1.236;2022-07-10T10:28:19;30.50;92.80
34768;DHT22;21755;43.608;1.236;2022-07-10T10:30:54;30.40;92.50
34768;DHT22;21755;43.608;1.236;2022-07-10T10:36:02;30.20;92.00
34768;DHT22;21755;43.608;1.236;2022-07-10T10:41:46;30.60;92.10
34768;DHT22;21755;43.608;1.236;2022-07-10T10:46:56;30.40;90.50
34768;DHT22;21755;43.608;1.236;2022-07-10T10:49:27;30.20;90.70
34768;DHT22;21755;43.608;1.236;2022-07-10T10:51:58;30.40;90.60
34768;DHT22;21755;43.608;1.236;2022-07-10T10:54:26;30.30;90.40
34768;DHT22;21755;43.608;1.236;2022-07-10T10:59:47;30.60;90.40
34768;DHT22;21755;43.608;1.236;2022-07-10T11:02:25;30.90;90.60
34768;DHT22;21755;43.608;1.236;2022-07-10T11:04:52;31.40;89.70
34768;DHT22;21755;43.608;1.236;2022-07-10T11:07:59;31.20;88.70
34768;DHT22;21755;43.608;1.236;2022-07-10T11:10:42;31.00;90.00
34768;DHT22;21755;43.608;1.236;2022-07-10T11:13:10;31.30;88.80
34768;DHT22;21755;43.608;1.236;2022-07-10T11:15:41;30.90;88.30
34768;DHT22;21755;43.608;1.236;2022-07-10T11:18:15;31.30;87.80
34768;DHT22;21755;43.608;1.236;2022-07-10T11:20:46;31.30;85.70
34768;DHT22;21755;43.608;1.236;2022-07-10T11:26:35;31.40;85.50
34768;DHT22;21755;43.608;1.236;2022-07-10T11:29:04;31.70;85.60
34768;DHT22;21755;43.608;1.236;2022-07-10T11:31:33;31.70;86.00
34768;DHT22;21755;43.608;1.236;2022-07-10T11:34:10;31.80;85.60
34768;DHT22;21755;43.608;1.236;2022-07-10T11:36:39;31.40;82.80
34768;DHT22;21755;43.608;1.236;2022-07-10T11:39:06;31.80;85.20
34768;DHT22;21755;43.608;1.236;2022-07-10T11:41:34;31.50;83.20
34768;DHT22;21755;43.608;1.236;2022-07-10T11:44:02;31.80;84.00
34768;DHT22;21755;43.608;1.236;2022-07-10T11:46:33;31.80;84.10
34768;DHT22;21755;43.608;1.236;2022-07-10T11:49:03;31.70;84.40
34768;DHT22;21755;43.608;1.236;2022-07-10T11:51:32;31.60;84.90
34768;DHT22;21755;43.608;1.236;2022-07-10T11:54:06;31.80;83.40
34768;DHT22;21755;43.608;1.236;2022-07-10T11:56:34;31.70;83.00
34768;DHT22;21755;43.608;1.236;2022-07-10T12:01:52;31.80;81.40
34768;DHT22;21755;43.608;1.236;2022-07-10T12:04:21;31.80;79.50
34768;DHT22;21755;43.608;1.236;2022-07-10T12:06:52;31.60;79.70
34768;DHT22;21755;43.608;1.236;2022-07-10T12:09:23;31.90;82.10
34768;DHT22;21755;43.608;1.236;2022-07-10T12:12:03;31.90;81.30
34768;DHT22;21755;43.608;1.236;2022-07-10T12:14:30;32.10;80.30
34768;DHT22;21755;43.608;1.236;2022-07-10T12:16:56;32.00;80.00
34768;DHT22;21755;43.608;1.236;2022-07-10T12:19:26;32.00;79.80
34768;DHT22;21755;43.608;1.236;2022-07-10T12:21:53;32.20;79.00
34768;DHT22;21755;43.608;1.236;2022-07-10T12:24:20;32.40;79.30
34768;DHT22;21755;43.608;1.236;2022-07-10T12:26:47;32.20;77.60
34768;DHT22;21755;43.608;1.236;2022-07-10T12:29:34;32.40;78.20
34768;DHT22;21755;43.608;1.236;2022-07-10T12:32:01;32.30;76.90
34768;DHT22;21755;43.608;1.236;2022-07-10T12:34:41;32.40;74.60
34768;DHT22;21755;43.608;1.236;2022-07-10T12:37:13;32.20;73.50
34768;DHT22;21755;43.608;1.236;2022-07-10T12:39:50;32.50;75.50
34768;DHT22;21755;43.608;1.236;2022-07-10T12:42:30;32.20;72.20
34768;DHT22;21755;43.608;1.236;2022-07-10T12:45:14;32.20;71.60
34768;DHT22;21755;43.608;1.236;2022-07-10T12:47:45;32.40;73.70
34768;DHT22;21755;43.608;1.236;2022-07-10T12:50:12;32.70;72.60
34768;DHT22;21755;43.608;1.236;2022-07-10T12:52:39;32.70;72.40
34768;DHT22;21755;43.608;1.236;2022-07-10T12:55:18;32.80;72.30
34768;DHT22;21755;43.608;1.236;2022-07-10T12:57:59;32.90;73.00
34768;DHT22;21755;43.608;1.236;2022-07-10T13:03:08;32.70;72.50
34768;DHT22;21755;43.608;1.236;2022-07-10T13:05:36;33.10;72.30
34768;DHT22;21755;43.608;1.236;2022-07-10T13:08:08;33.20;71.20
34768;DHT22;21755;43.608;1.236;2022-07-10T13:10:36;33.20;72.50
34768;DHT22;21755;43.608;1.236;2022-07-10T13:13:05;33.10;72.10
34768;DHT22;21755;43.608;1.236;2022-07-10T13:15:33;33.20;71.20
34768;DHT22;21755;43.608;1.236;2022-07-10T13:18:16;32.90;71.00
34768;DHT22;21755;43.608;1.236;2022-07-10T13:20:49;32.60;71.80
34768;DHT22;21755;43.608;1.236;2022-07-10T13:23:16;32.50;70.80
34768;DHT22;21755;43.608;1.236;2022-07-10T13:25:44;32.60;72.90
34768;DHT22;21755;43.608;1.236;2022-07-10T13:28:10;32.90;70.20
34768;DHT22;21755;43.608;1.236;2022-07-10T13:30:39;32.90;69.30
34768;DHT22;21755;43.608;1.236;2022-07-10T13:33:06;32.80;69.50
34768;DHT22;21755;43.608;1.236;2022-07-10T13:35:33;33.00;68.40
34768;DHT22;21755;43.608;1.236;2022-07-10T13:38:00;33.20;68.10
34768;DHT22;21755;43.608;1.236;2022-07-10T13:40:31;33.50;68.60
34768;DHT22;21755;43.608;1.236;2022-07-10T13:42:57;33.20;68.30
34768;DHT22;21755;43.608;1.236;2022-07-10T13:45:24;33.30;68.80
34768;DHT22;21755;43.608;1.236;2022-07-10T13:47:51;33.20;66.80
34768;DHT22;21755;43.608;1.236;2022-07-10T13:50:20;33.50;69.40
34768;DHT22;21755;43.608;1.236;2022-07-10T13:52:46;33.30;66.70
34768;DHT22;21755;43.608;1.236;2022-07-10T13:55:12;33.30;66.60
34768;DHT22;21755;43.608;1.236;2022-07-10T13:57:39;33.40;67.50
34768;DHT22;21755;43.608;1.236;2022-07-10T14:00:06;33.30;64.20
34768;DHT22;21755;43.608;1.236;2022-07-10T14:02:32;33.50;65.20
34768;DHT22;21755;43.608;1.236;2022-07-10T14:04:58;33.60;66.70
34768;DHT22;21755;43.608;1.236;2022-07-10T14:07:25;33.70;64.70
34768;DHT22;21755;43.608;1.236;2022-07-10T14:09:50;33.40;65.60
34768;DHT22;21755;43.608;1.236;2022-07-10T14:12:16;33.30;68.50
34768;DHT22;21755;43.608;1.236;2022-07-10T14:14:42;33.20;67.30
34768;DHT22;21755;43.608;1.236;2022-07-10T14:17:08;33.40;68.40
34768;DHT22;21755;43.608;1.236;2022-07-10T14:19:34;33.50;64.70
34768;DHT22;21755;43.608;1.236;2022-07-10T14:22:01;33.40;65.00
34768;DHT22;21755;43.608;1.236;2022-07-10T14:24:27;33.30;66.30
34768;DHT22;21755;43.608;1.236;2022-07-10T14:26:53;33.20;68.10
34768;DHT22;21755;43.608;1.236;2022-07-10T14:29:19;33.40;66.20
34768;DHT22;21755;43.608;1.236;2022-07-10T14:31:45;33.60;65.80
34768;DHT22;21755;43.608;1.236;2022-07-10T14:34:15;33.80;67.20
34768;DHT22;21755;43.608;1.236;2022-07-10T14:36:41;33.50;61.90
34768;DHT22;21755;43.608;1.236;2022-07-10T14:39:07;33.40;62.40
34768;DHT22;21755;43.608;1.236;2022-07-10T14:41:33;33.40;63.80
34768;DHT22;21755;43.608;1.236;2022-07-10T14:43:59;33.40;64.00
34768;DHT22;21755;43.608;1.236;2022-07-10T14:46:25;33.60;65.40
34768;DHT22;21755;43.608;1.236;2022-07-10T14:48:51;33.60;65.90
34768;DHT22;21755;43.608;1.236;2022-07-10T14:51:17;33.70;67.00
34768;DHT22;21755;43.608;1.236;2022-07-10T14:53:46;33.50;65.70
34768;DHT22;21755;43.608;1.236;2022-07-10T14:56:13;33.80;65.80
34768;DHT22;21755;43.608;1.236;2022-07-10T14:58:42;33.90;64.20
34768;DHT22;21755;43.608;1.236;2022-07-10T15:01:08;33.70;63.40
34768;DHT22;21755;43.608;1.236;2022-07-10T15:03:34;33.70;65.60
34768;DHT22;21755;43.608;1.236;2022-07-10T15:06:00;33.70;66.00
34768;DHT22;21755;43.608;1.236;2022-07-10T15:08:26;33.90;66.70
34768;DHT22;21755;43.608;1.236;2022-07-10T15:10:52;33.70;65.50
34768;DHT22;21755;43.608;1.236;2022-07-10T15:13:19;33.80;65.00
34768;DHT22;21755;43.608;1.236;2022-07-10T15:15:45;33.90;65.50
34768;DHT22;21755;43.608;1.236;2022-07-10T15:18:13;33.80;63.40
34768;DHT22;21755;43.608;1.236;2022-07-10T15:20:40;33.80;65.10
34768;DHT22;21755;43.608;1.236;2022-07-10T15:23:06;33.70;65.40
34768;DHT22;21755;43.608;1.236;2022-07-10T15:25:32;33.80;65.40
34768;DHT22;21755;43.608;1.236;2022-07-10T15:27:58;33.80;65.90
34768;DHT22;21755;43.608;1.236;2022-07-10T15:30:24;33.70;65.10
34768;DHT22;21755;43.608;1.236;2022-07-10T15:32:50;33.70;65.50
34768;DHT22;21755;43.608;1.236;2022-07-10T15:35:20;33.80;64.70
34768;DHT22;21755;43.608;1.236;2022-07-10T15:37:49;33.90;63.30
34768;DHT22;21755;43.608;1.236;2022-07-10T15:40:15;33.80;63.00
34768;DHT22;21755;43.608;1.236;2022-07-10T15:42:41;33.60;64.40
34768;DHT22;21755;43.608;1.236;2022-07-10T15:45:10;33.80;64.90
34768;DHT22;21755;43.608;1.236;2022-07-10T15:47:36;33.80;63.90
34768;DHT22;21755;43.608;1.236;2022-07-10T15:50:03;33.80;64.80
34768;DHT22;21755;43.608;1.236;2022-07-10T15:52:30;33.80;64.40
34768;DHT22;21755;43.608;1.236;2022-07-10T15:54:56;33.60;64.50
34768;DHT22;21755;43.608;1.236;2022-07-10T15:57:22;33.70;64.80
34768;DHT22;21755;43.608;1.236;2022-07-10T15:59:48;33.50;64.20